createdAt,value
2019-05-13T05:15:03.087Z,99.90
2019-05-13T05:18:04.584Z,99.90
2019-05-13T05:21:05.051Z,99.90
2019-05-13T05:24:02.083Z,99.90
2019-05-13T05:27:18.624Z,99.90
2019-05-13T05:30:06.278Z,99.90
2019-05-13T05:33:11.324Z,99.90
2019-05-13T05:36:36.639Z,99.90
2019-05-13T05:39:22.770Z,99.90
2019-05-13T05:41:55.378Z,99.90
2019-05-13T05:44:27.490Z,99.90
2019-05-13T05:47:02.191Z,99.90
2019-05-13T05:49:31.983Z,99.90
2019-05-13T05:52:04.008Z,99.90
2019-05-13T05:54:35.488Z,99.90
2019-05-13T05:57:06.383Z,99.90
2019-05-13T05:59:38.500Z,99.90
2019-05-13T06:02:11.937Z,99.90
2019-05-13T06:04:43.096Z,99.90
2019-05-13T06:07:13.097Z,99.90
2019-05-13T06:09:42.665Z,99.90
2019-05-13T06:12:12.550Z,99.90
2019-05-13T06:14:42.569Z,99.90
2019-05-13T06:17:12.128Z,99.90
2019-05-13T06:19:42.007Z,99.90
2019-05-13T06:22:12.285Z,99.90
2019-05-13T06:24:42.509Z,99.90
2019-05-13T06:27:12.358Z,99.90
2019-05-13T06:29:42.418Z,99.90
2019-05-13T06:32:22.020Z,99.90
2019-05-13T06:34:43.659Z,99.90
2019-05-13T06:37:13.901Z,99.90
2019-05-13T06:39:43.554Z,99.90
2019-05-13T06:42:13.043Z,99.90
2019-05-13T06:44:42.903Z,99.90
2019-05-13T06:47:12.241Z,99.90
2019-05-13T06:49:42.847Z,99.90
2019-05-13T06:52:12.719Z,99.90
2019-05-13T06:54:42.214Z,99.90
2019-05-13T06:57:13.399Z,99.90
2019-05-13T06:59:42.996Z,99.90
2019-05-13T07:02:12.616Z,99.90
2019-05-13T07:04:42.245Z,99.90
2019-05-13T07:07:16.757Z,99.90
2019-05-13T07:09:44.180Z,99.90
2019-05-13T07:12:13.863Z,99.90
2019-05-13T07:14:43.287Z,99.90
2019-05-13T07:17:12.665Z,99.90
2019-05-13T07:19:43.419Z,99.90
2019-05-13T07:22:13.118Z,99.90
2019-05-13T07:24:42.731Z,99.90
2019-05-13T07:27:12.428Z,99.90
2019-05-13T07:29:42.500Z,99.90
2019-05-13T07:32:12.172Z,99.90
2019-05-13T07:34:43.961Z,99.90
2019-05-13T07:37:12.758Z,99.90
2019-05-13T07:39:42.249Z,99.90
2019-05-13T07:42:12.475Z,99.90
2019-05-13T07:44:42.032Z,99.90
2019-05-13T07:47:11.881Z,99.90
2019-05-13T07:49:43.001Z,99.90
2019-05-13T07:52:12.839Z,99.90
2019-05-13T07:54:42.340Z,99.90
2019-05-13T07:57:12.379Z,99.90
2019-05-13T07:59:42.662Z,99.90
2019-05-13T08:02:12.519Z,99.90
2019-05-13T08:04:42.288Z,99.90
2019-05-13T08:07:12.302Z,99.90
2019-05-13T08:09:42.134Z,99.90
2019-05-13T08:12:14.681Z,99.90
2019-05-13T08:14:44.426Z,99.90
2019-05-13T08:17:13.855Z,99.90
2019-05-13T08:19:43.333Z,99.90
2019-05-13T08:22:12.714Z,99.90
2019-05-13T08:24:42.653Z,99.90
2019-05-13T08:27:12.215Z,99.90
2019-05-13T08:29:42.096Z,99.90
2019-05-13T08:32:13.535Z,99.90
2019-05-13T08:34:43.272Z,99.90
2019-05-13T08:37:12.658Z,99.90
2019-05-13T08:39:42.740Z,99.90
2019-05-13T08:42:16.851Z,99.90
2019-05-13T08:44:43.734Z,99.90
2019-05-13T08:47:13.138Z,99.90
2019-05-13T08:49:42.785Z,99.90
2019-05-13T08:52:12.407Z,99.90
2019-05-13T08:54:42.106Z,99.90
2019-05-13T08:57:11.951Z,99.90
2019-05-13T08:59:42.171Z,99.90
2019-05-13T09:02:12.456Z,99.90
2019-05-13T09:04:42.654Z,99.90
2019-05-13T09:07:12.612Z,99.90
2019-05-13T09:09:42.237Z,99.80
2019-05-13T09:12:16.229Z,99.40
2019-05-13T09:14:43.425Z,96.50
2019-05-13T09:17:12.886Z,94.90
2019-05-13T09:19:42.259Z,92.60
2019-05-13T09:22:12.451Z,92.20
2019-05-13T09:24:43.719Z,90.90
2019-05-13T09:27:13.389Z,91.20
2019-05-13T09:29:42.994Z,90.50
2019-05-13T09:32:12.735Z,88.80
2019-05-13T09:34:42.736Z,89.40
2019-05-13T09:37:12.798Z,87.80
2019-05-13T09:39:42.294Z,78.80
2019-05-13T09:42:12.755Z,77.90
2019-05-13T09:44:42.262Z,73.50
2019-05-13T09:47:12.604Z,71.60
2019-05-13T09:49:42.432Z,73.20
2019-05-13T09:52:12.074Z,73.00
2019-05-13T09:54:42.821Z,72.00
2019-05-13T09:57:12.682Z,71.60
2019-05-13T09:59:42.494Z,67.80
2019-05-13T10:02:12.636Z,69.50
2019-05-13T10:04:43.737Z,69.50
2019-05-13T10:07:13.608Z,69.30
2019-05-13T10:09:44.470Z,66.90
2019-05-13T10:12:14.079Z,64.00
2019-05-13T10:14:44.281Z,59.80
2019-05-13T10:17:13.620Z,59.60
2019-05-13T10:19:43.268Z,59.50
2019-05-13T10:22:12.875Z,58.60
2019-05-13T10:24:42.715Z,55.00
2019-05-13T10:27:12.831Z,55.60
2019-05-13T10:29:42.905Z,56.70
2019-05-13T10:32:12.494Z,59.50
2019-05-13T10:34:44.702Z,59.40
2019-05-13T10:37:14.543Z,57.70
2019-05-13T10:39:43.911Z,58.40
2019-05-13T10:42:13.365Z,55.90
2019-05-13T10:44:43.199Z,54.00
2019-05-13T10:47:12.904Z,55.30
2019-05-13T10:49:42.710Z,53.60
2019-05-13T10:52:12.481Z,50.90
2019-05-13T10:54:43.855Z,48.60
2019-05-13T10:57:15.217Z,50.10
2019-05-13T10:59:45.235Z,50.70
2019-05-13T11:02:15.610Z,51.20
2019-05-13T11:04:45.191Z,51.40
2019-05-13T11:07:15.353Z,50.60
2019-05-13T11:09:44.831Z,50.20
2019-05-13T11:12:14.265Z,48.20
2019-05-13T11:14:46.766Z,47.90
2019-05-13T11:17:15.061Z,50.60
2019-05-13T11:19:44.746Z,48.10
2019-05-13T11:22:14.233Z,49.00
2019-05-13T11:24:43.808Z,47.10
2019-05-13T11:27:13.186Z,47.20
2019-05-13T11:29:42.717Z,46.70
2019-05-13T11:32:14.041Z,45.60
2019-05-13T11:34:44.877Z,45.10
2019-05-13T11:37:14.440Z,43.50
2019-05-13T11:39:44.220Z,44.90
2019-05-13T11:42:14.405Z,45.60
2019-05-13T11:44:43.876Z,45.40
2019-05-13T11:47:13.474Z,45.60
2019-05-13T11:49:42.968Z,44.40
2019-05-13T11:52:12.488Z,44.90
2019-05-13T11:54:42.452Z,45.50
2019-05-13T11:57:12.870Z,46.20
2019-05-13T11:59:43.256Z,47.70
2019-05-13T12:02:13.770Z,47.10
2019-05-13T12:04:45.177Z,45.80
2019-05-13T12:07:14.762Z,46.40
2019-05-13T12:09:44.143Z,47.80
2019-05-13T12:12:14.069Z,47.40
2019-05-13T12:15:16.260Z,45.00
2019-05-13T12:17:15.352Z,43.20
2019-05-13T12:19:45.002Z,43.60
2019-05-13T12:22:14.711Z,42.60
2019-05-13T12:24:44.307Z,44.20
2019-05-13T12:27:13.724Z,43.00
2019-05-13T12:29:43.306Z,43.30
2019-05-13T12:32:13.808Z,41.80
2019-05-13T12:34:45.939Z,42.90
2019-05-13T12:37:14.718Z,43.30
2019-05-13T12:39:44.268Z,44.10
2019-05-13T12:42:13.810Z,43.40
2019-05-13T12:45:00.316Z,41.50
2019-05-13T12:47:14.886Z,43.60
2019-05-13T12:49:44.531Z,41.70
2019-05-13T12:52:13.965Z,42.10
2019-05-13T12:54:44.149Z,42.50
2019-05-13T12:57:16.114Z,41.50
2019-05-13T12:59:45.863Z,41.20
2019-05-13T13:02:15.388Z,42.10
2019-05-13T13:05:07.777Z,40.30
2019-05-13T13:07:16.222Z,39.90
2019-05-13T13:09:45.794Z,39.80
2019-05-13T13:12:15.275Z,39.30
2019-05-13T13:14:44.943Z,39.50
2019-05-13T13:17:14.445Z,38.90
2019-05-13T13:19:43.882Z,38.00
2019-05-13T13:22:15.026Z,39.00
2019-05-13T13:24:51.595Z,39.10
2019-05-13T13:27:25.837Z,40.10
2019-05-13T13:29:47.368Z,39.80
2019-05-13T13:32:17.202Z,40.50
2019-05-13T13:34:46.768Z,39.40
2019-05-13T13:37:16.511Z,39.30
2019-05-13T13:39:46.346Z,39.30
2019-05-13T13:42:16.302Z,39.40
2019-05-13T13:44:45.941Z,39.60
2019-05-13T13:47:15.550Z,39.70
2019-05-13T13:49:45.127Z,39.40
2019-05-13T13:52:17.095Z,39.60
2019-05-13T13:54:46.655Z,40.20
2019-05-13T13:57:16.230Z,40.70
2019-05-13T14:02:25.226Z,41.40
2019-05-13T14:04:54.468Z,39.80
2019-05-13T14:07:34.843Z,41.70
2019-05-13T14:09:55.383Z,41.30
2019-05-13T14:12:24.802Z,40.20
2019-05-13T14:14:55.461Z,38.60
2019-05-13T14:17:24.846Z,37.70
2019-05-13T14:19:54.411Z,36.90
2019-05-13T14:22:23.929Z,38.80
2019-05-13T14:24:53.863Z,38.40
2019-05-13T14:27:23.331Z,38.80
2019-05-13T14:29:52.917Z,37.60
2019-05-13T14:32:22.643Z,38.80
2019-05-13T14:34:52.883Z,39.30
2019-05-13T14:37:22.718Z,38.40
2019-05-13T14:39:52.309Z,37.50
2019-05-13T14:42:22.774Z,38.20
2019-05-13T14:44:53.434Z,38.60
2019-05-13T14:47:22.791Z,38.70
2019-05-13T14:49:52.278Z,38.00
2019-05-13T14:52:22.335Z,37.10
2019-05-13T14:54:51.950Z,36.90
2019-05-13T14:57:21.910Z,38.10
2019-05-13T14:59:51.862Z,36.70
2019-05-13T15:02:21.353Z,36.30
2019-05-13T15:04:52.322Z,37.30
2019-05-13T15:07:22.189Z,36.70
2019-05-13T15:09:51.675Z,35.70
2019-05-13T15:12:21.744Z,38.40
2019-05-13T15:14:52.257Z,37.90
2019-05-13T15:17:22.137Z,37.00
2019-05-13T15:19:52.507Z,35.80
2019-05-13T15:22:22.709Z,35.60
2019-05-13T15:24:52.281Z,36.20
2019-05-13T15:27:22.293Z,36.40
2019-05-13T15:29:52.279Z,37.30
2019-05-13T15:32:22.049Z,36.00
2019-05-13T15:34:51.957Z,36.40
2019-05-13T15:37:21.603Z,36.40
2019-05-13T15:39:51.847Z,36.90
2019-05-13T15:42:21.881Z,37.50
2019-05-13T15:44:53.087Z,37.20
2019-05-13T15:47:26.367Z,36.50
2019-05-13T15:49:54.927Z,36.10
2019-05-13T15:52:24.423Z,36.80
2019-05-13T15:54:53.825Z,35.30
2019-05-13T15:57:23.391Z,35.80
2019-05-13T15:59:53.051Z,35.70
2019-05-13T16:02:23.770Z,36.30
2019-05-13T16:05:00.979Z,36.90
2019-05-13T16:07:26.151Z,37.80
2019-05-13T16:09:55.539Z,38.30
2019-05-13T16:12:25.102Z,38.80
2019-05-13T16:14:54.739Z,38.30
2019-05-13T16:17:37.764Z,38.60
2019-05-13T16:19:55.746Z,38.90
2019-05-13T16:22:25.425Z,39.00
2019-05-13T16:24:55.090Z,38.00
2019-05-13T16:27:24.967Z,38.70
2019-05-13T16:29:54.405Z,38.80
2019-05-13T16:32:24.491Z,39.10
2019-05-13T16:34:53.906Z,38.90
2019-05-13T16:37:25.627Z,39.70
2019-05-13T16:39:55.298Z,39.20
2019-05-13T16:42:25.012Z,39.30
2019-05-13T16:44:55.028Z,39.60
2019-05-13T16:47:24.812Z,40.10
2019-05-13T16:49:54.370Z,40.90
2019-05-13T16:52:23.754Z,40.50
2019-05-13T16:54:53.571Z,40.70
2019-05-13T16:57:23.158Z,40.50
2019-05-13T16:59:52.695Z,40.20
2019-05-13T17:02:22.253Z,40.10
2019-05-13T17:04:52.186Z,39.80
2019-05-13T17:07:23.582Z,40.00
2019-05-13T17:09:53.384Z,40.10
2019-05-13T17:12:22.829Z,39.40
2019-05-13T17:14:52.588Z,40.00
2019-05-13T17:17:22.033Z,38.80
2019-05-13T17:19:53.915Z,39.20
2019-05-13T17:22:22.942Z,38.80
2019-05-13T17:24:52.618Z,38.10
2019-05-13T17:27:23.994Z,38.20
2019-05-13T17:29:53.561Z,37.90
2019-05-13T17:32:23.383Z,38.30
2019-05-13T17:34:53.075Z,38.50
2019-05-13T17:37:22.724Z,38.30
2019-05-13T17:39:52.847Z,38.80
2019-05-13T17:42:22.294Z,38.50
2019-05-13T17:44:51.825Z,38.60
2019-05-13T17:47:21.857Z,37.70
2019-05-13T17:49:52.132Z,37.70
2019-05-13T17:52:22.178Z,37.50
2019-05-13T17:54:51.952Z,37.60
2019-05-13T17:57:21.679Z,37.40
2019-05-13T17:59:52.093Z,37.90
2019-05-13T18:02:22.149Z,36.90
2019-05-13T18:04:52.157Z,36.90
2019-05-13T18:07:22.055Z,36.40
2019-05-13T18:09:52.079Z,36.80
2019-05-13T18:12:22.403Z,36.80
2019-05-13T18:14:52.279Z,36.20
2019-05-13T18:17:22.046Z,36.00
2019-05-13T18:19:51.633Z,36.00
2019-05-13T18:22:23.066Z,36.60
2019-05-13T18:24:52.773Z,35.60
2019-05-13T18:27:22.458Z,35.30
2019-05-13T18:29:51.964Z,35.30
2019-05-13T18:32:21.607Z,35.20
2019-05-13T18:34:51.243Z,35.90
2019-05-13T18:37:22.164Z,36.80
2019-05-13T18:39:52.536Z,38.30
2019-05-13T18:42:22.549Z,39.50
2019-05-13T18:44:52.116Z,40.10
2019-05-13T18:47:22.211Z,40.60
2019-05-13T18:49:52.628Z,41.40
2019-05-13T18:52:22.786Z,41.80
2019-05-13T18:54:54.514Z,42.50
2019-05-13T18:57:24.443Z,42.60
2019-05-13T18:59:54.077Z,43.00
2019-05-13T19:02:23.691Z,43.20
2019-05-13T19:04:53.606Z,43.50
2019-05-13T19:07:23.382Z,43.90
2019-05-13T19:09:53.080Z,44.20
2019-05-13T19:12:25.608Z,44.20
2019-05-13T19:14:54.202Z,44.30
2019-05-13T19:17:23.803Z,44.80
2019-05-13T19:19:53.245Z,45.10
2019-05-13T19:22:22.816Z,45.20
2019-05-13T19:24:52.421Z,45.20
2019-05-13T19:27:21.907Z,45.60
2019-05-13T19:29:52.368Z,45.30
2019-05-13T19:32:22.367Z,45.60
2019-05-13T19:34:52.098Z,45.60
2019-05-13T19:37:22.405Z,45.60
2019-05-13T19:39:52.515Z,45.80
2019-05-13T19:42:22.485Z,45.90
2019-05-13T19:44:55.528Z,46.20
2019-05-13T19:47:25.212Z,46.20
2019-05-13T19:49:55.057Z,45.80
2019-05-13T19:52:24.771Z,46.20
2019-05-13T19:54:54.423Z,47.20
2019-05-13T19:57:24.239Z,46.70
2019-05-13T19:59:54.013Z,47.10
2019-05-13T20:02:24.020Z,46.40
2019-05-13T20:04:53.536Z,47.70
2019-05-13T20:07:23.435Z,46.90
2019-05-13T20:09:53.039Z,46.80
2019-05-13T20:12:23.818Z,46.70
2019-05-13T20:14:53.855Z,47.00
2019-05-13T20:17:23.574Z,46.90
2019-05-13T20:19:53.740Z,47.10
2019-05-13T20:22:23.542Z,47.70
2019-05-13T20:24:53.386Z,48.10
2019-05-13T20:27:23.065Z,48.10
2019-05-13T20:29:52.916Z,48.60
2019-05-13T20:32:22.667Z,48.80
2019-05-13T20:34:52.306Z,48.90
2019-05-13T20:37:22.338Z,49.40
2019-05-13T20:39:52.174Z,49.60
2019-05-13T20:42:23.402Z,49.90
2019-05-13T20:44:53.211Z,50.10
2019-05-13T20:47:23.213Z,50.40
2019-05-13T20:50:01.502Z,50.50
2019-05-13T20:52:24.713Z,50.70
2019-05-13T20:54:54.232Z,51.10
2019-05-13T20:57:25.918Z,51.40
2019-05-13T20:59:57.121Z,51.80
2019-05-13T21:02:26.987Z,52.00
2019-05-13T21:04:56.566Z,52.40
2019-05-13T21:07:26.219Z,52.70
2019-05-13T21:09:55.759Z,53.10
2019-05-13T21:12:25.836Z,53.30
2019-05-13T21:14:55.433Z,53.60
2019-05-13T21:17:25.333Z,53.50
2019-05-13T21:19:59.844Z,54.00
2019-05-13T21:22:26.230Z,54.30
2019-05-13T21:24:55.986Z,54.70
2019-05-13T21:27:25.654Z,54.90
2019-05-13T21:29:55.425Z,55.40
2019-05-13T21:32:24.920Z,56.20
2019-05-13T21:34:54.451Z,56.70
2019-05-13T21:37:24.049Z,57.30
2019-05-13T21:39:53.840Z,58.00
2019-05-13T21:42:23.994Z,58.70
2019-05-13T21:44:53.654Z,59.70
2019-05-13T21:47:23.071Z,61.30
2019-05-13T21:49:52.947Z,62.20
2019-05-13T21:52:23.982Z,63.30
2019-05-13T21:54:53.708Z,64.30
2019-05-13T21:57:24.566Z,66.50
2019-05-13T21:59:55.291Z,67.30
2019-05-13T22:02:26.161Z,68.90
2019-05-13T22:04:56.780Z,71.10
2019-05-13T22:07:27.095Z,73.60
2019-05-13T22:09:58.074Z,76.70
2019-05-13T22:12:29.004Z,79.30
2019-05-13T22:15:00.949Z,82.00
2019-05-13T22:17:32.388Z,85.30
2019-05-13T22:20:03.691Z,89.10
2019-05-13T22:22:34.329Z,91.40
2019-05-13T22:25:05.187Z,93.00
2019-05-13T22:27:36.179Z,93.50
2019-05-13T22:30:07.654Z,94.30
2019-05-13T22:32:38.459Z,95.70
2019-05-13T22:35:11.227Z,96.40
2019-05-13T22:37:45.661Z,96.80
2019-05-13T22:40:17.465Z,97.50
2019-05-13T22:42:48.279Z,98.20
2019-05-13T22:45:18.986Z,99.10
2019-05-13T22:47:52.073Z,99.60
2019-05-13T22:50:23.363Z,99.90
2019-05-13T22:52:54.130Z,99.90
2019-05-13T22:55:24.838Z,99.90
2019-05-13T22:57:55.581Z,99.90
2019-05-13T23:00:27.130Z,99.90
2019-05-13T23:02:58.331Z,99.90
2019-05-13T23:05:28.701Z,99.90
2019-05-13T23:07:59.110Z,99.90
2019-05-13T23:10:31.663Z,99.90
2019-05-13T23:13:02.187Z,99.90
2019-05-13T23:15:32.477Z,99.90
2019-05-13T23:18:02.798Z,99.90
2019-05-13T23:20:32.952Z,99.90
2019-05-13T23:23:03.421Z,99.90
2019-05-13T23:25:33.566Z,99.90
2019-05-13T23:28:04.084Z,99.90
2019-05-13T23:30:33.912Z,99.90
2019-05-13T23:33:03.378Z,99.90
2019-05-13T23:35:33.023Z,99.90
2019-05-13T23:38:02.679Z,99.90
2019-05-13T23:40:33.568Z,99.90
2019-05-13T23:43:03.066Z,99.90
2019-05-13T23:45:32.630Z,99.90
2019-05-13T23:48:02.021Z,99.90
2019-05-13T23:50:32.126Z,99.90
2019-05-13T23:53:01.664Z,99.90
2019-05-13T23:55:32.151Z,99.90
2019-05-13T23:58:02.300Z,99.90
